createdAt,value
2023-01-07T00:01:51.021Z,100.00
2023-01-07T00:04:18.100Z,100.00
2023-01-07T00:06:47.466Z,100.00
2023-01-07T00:09:18.765Z,100.00
2023-01-07T00:11:46.298Z,100.00
2023-01-07T00:14:14.506Z,100.00
2023-01-07T00:16:42.644Z,100.00
2023-01-07T00:19:15.084Z,100.00
2023-01-07T00:21:43.119Z,100.00
2023-01-07T00:24:11.554Z,100.00
2023-01-07T00:26:40.193Z,100.00
2023-01-07T00:29:08.624Z,100.00
2023-01-07T00:31:39.089Z,100.00
2023-01-07T00:34:07.306Z,100.00
2023-01-07T00:36:39.238Z,100.00
2023-01-07T00:39:17.608Z,100.00
2023-01-07T00:42:05.715Z,100.00
2023-01-07T00:44:33.567Z,100.00
2023-01-07T00:47:01.403Z,100.00
2023-01-07T00:49:28.943Z,100.00
2023-01-07T00:51:55.991Z,100.00
2023-01-07T00:54:23.841Z,100.00
2023-01-07T00:56:50.825Z,100.00
2023-01-07T00:59:17.821Z,100.00
2023-01-07T01:01:44.920Z,100.00
2023-01-07T01:04:12.092Z,100.00
2023-01-07T01:06:39.075Z,100.00
2023-01-07T01:09:06.077Z,100.00
2023-01-07T01:11:33.062Z,100.00
2023-01-07T01:14:00.057Z,100.00
2023-01-07T01:16:27.170Z,100.00
2023-01-07T01:18:54.210Z,100.00
2023-01-07T01:21:21.219Z,100.00
2023-01-07T01:23:48.340Z,100.00
2023-01-07T01:26:17.756Z,100.00
2023-01-07T01:28:45.737Z,100.00
2023-01-07T01:31:13.641Z,100.00
2023-01-07T01:33:40.916Z,100.00
2023-01-07T01:36:11.174Z,100.00
2023-01-07T01:38:38.651Z,100.00
2023-01-07T01:41:07.231Z,100.00
2023-01-07T01:43:37.968Z,100.00
2023-01-07T01:46:17.446Z,100.00
2023-01-07T01:48:53.552Z,100.00
2023-01-07T01:51:25.183Z,100.00
2023-01-07T01:53:53.157Z,100.00
2023-01-07T01:56:30.345Z,100.00
2023-01-07T01:59:08.810Z,100.00
2023-01-07T02:01:37.230Z,100.00
2023-01-07T02:04:18.047Z,100.00
2023-01-07T02:07:16.904Z,100.00
2023-01-07T02:09:44.485Z,100.00
2023-01-07T02:12:37.952Z,100.00
2023-01-07T02:15:20.167Z,100.00
2023-01-07T02:18:31.423Z,100.00
2023-01-07T02:21:39.384Z,100.00
2023-01-07T02:24:28.616Z,100.00
2023-01-07T02:27:17.072Z,100.00
2023-01-07T02:30:13.758Z,100.00
2023-01-07T02:33:37.163Z,100.00
2023-01-07T02:36:50.066Z,100.00
2023-01-07T02:40:08.229Z,100.00
2023-01-07T02:43:06.205Z,100.00
2023-01-07T02:45:52.962Z,100.00
2023-01-07T02:48:22.155Z,100.00
2023-01-07T02:50:49.115Z,100.00
2023-01-07T02:53:20.111Z,100.00
2023-01-07T02:56:24.736Z,100.00
2023-01-07T02:59:07.879Z,100.00
2023-01-07T03:02:26.484Z,100.00
2023-01-07T03:05:18.923Z,100.00
2023-01-07T03:08:12.636Z,100.00
2023-01-07T03:11:00.822Z,100.00
2023-01-07T03:13:42.036Z,100.00
2023-01-07T03:16:13.764Z,100.00
2023-01-07T03:18:56.676Z,100.00
2023-01-07T03:21:26.421Z,100.00
2023-01-07T03:23:57.506Z,100.00
2023-01-07T03:26:33.080Z,100.00
2023-01-07T03:29:03.224Z,100.00
2023-01-07T03:31:31.319Z,100.00
2023-01-07T03:34:10.796Z,100.00
2023-01-07T03:36:43.438Z,100.00
2023-01-07T03:39:12.715Z,100.00
2023-01-07T03:42:06.876Z,100.00
2023-01-07T03:44:33.870Z,100.00
2023-01-07T03:47:01.563Z,100.00
2023-01-07T03:49:28.633Z,100.00
2023-01-07T03:51:55.780Z,100.00
2023-01-07T03:54:23.958Z,100.00
2023-01-07T03:56:50.955Z,100.00
2023-01-07T03:59:18.178Z,100.00
2023-01-07T04:01:45.291Z,100.00
2023-01-07T04:04:12.344Z,100.00
2023-01-07T04:06:39.390Z,100.00
2023-01-07T04:09:06.546Z,100.00
2023-01-07T04:11:33.653Z,100.00
2023-01-07T04:14:00.940Z,100.00
2023-01-07T04:16:28.292Z,100.00
2023-01-07T04:18:55.575Z,100.00
2023-01-07T04:21:22.643Z,100.00
2023-01-07T04:23:49.675Z,100.00
2023-01-07T04:26:16.687Z,100.00
2023-01-07T04:28:43.687Z,100.00
2023-01-07T04:31:10.916Z,100.00
2023-01-07T04:33:37.991Z,100.00
2023-01-07T04:36:05.468Z,100.00
2023-01-07T04:38:32.452Z,100.00
2023-01-07T04:40:59.496Z,100.00
2023-01-07T04:43:26.482Z,100.00
2023-01-07T04:45:53.550Z,100.00
2023-01-07T04:48:20.524Z,100.00
2023-01-07T04:50:48.256Z,100.00
2023-01-07T04:53:16.358Z,100.00
2023-01-07T04:55:44.989Z,100.00
2023-01-07T04:58:13.253Z,100.00
2023-01-07T05:00:40.197Z,100.00
2023-01-07T05:03:07.326Z,100.00
2023-01-07T05:05:34.342Z,100.00
2023-01-07T05:08:01.344Z,100.00
2023-01-07T05:10:28.392Z,100.00
2023-01-07T05:12:55.392Z,100.00
2023-01-07T05:15:22.400Z,100.00
2023-01-07T05:17:49.340Z,100.00
2023-01-07T05:20:16.425Z,100.00
2023-01-07T05:22:43.463Z,100.00
2023-01-07T05:25:10.611Z,100.00
2023-01-07T05:27:37.675Z,100.00
2023-01-07T05:30:05.615Z,100.00
2023-01-07T05:32:32.599Z,100.00
2023-01-07T05:34:59.543Z,100.00
2023-01-07T05:37:26.511Z,100.00
2023-01-07T05:39:53.450Z,100.00
2023-01-07T05:42:20.461Z,100.00
2023-01-07T05:44:47.385Z,100.00
2023-01-07T05:47:14.303Z,100.00
2023-01-07T05:49:44.077Z,100.00
2023-01-07T05:52:11.060Z,100.00
2023-01-07T05:54:38.108Z,100.00
2023-01-07T05:57:05.109Z,100.00
2023-01-07T05:59:34.783Z,100.00
2023-01-07T06:02:02.698Z,100.00
2023-01-07T06:04:30.013Z,100.00
2023-01-07T06:06:57.010Z,100.00
2023-01-07T06:09:24.022Z,100.00
2023-01-07T06:11:51.027Z,100.00
2023-01-07T06:14:18.261Z,100.00
2023-01-07T06:16:45.226Z,100.00
2023-01-07T06:19:12.256Z,100.00
2023-01-07T06:21:39.321Z,100.00
2023-01-07T06:24:07.313Z,100.00
2023-01-07T06:26:34.365Z,100.00
2023-01-07T06:29:01.367Z,100.00
2023-01-07T06:31:28.384Z,100.00
2023-01-07T06:33:55.570Z,100.00
2023-01-07T06:36:22.644Z,100.00
2023-01-07T06:38:49.608Z,100.00
2023-01-07T06:41:16.600Z,100.00
2023-01-07T06:43:43.548Z,100.00
2023-01-07T06:46:10.821Z,100.00
2023-01-07T06:48:37.756Z,100.00
2023-01-07T06:51:05.094Z,100.00
2023-01-07T06:53:32.233Z,100.00
2023-01-07T06:55:59.184Z,100.00
2023-01-07T06:58:26.153Z,100.00
2023-01-07T07:00:53.121Z,100.00
2023-01-07T07:03:20.092Z,100.00
2023-01-07T07:05:47.201Z,100.00
2023-01-07T07:08:14.172Z,100.00
2023-01-07T07:10:41.141Z,100.00
2023-01-07T07:13:08.492Z,100.00
2023-01-07T07:15:35.489Z,100.00
2023-01-07T07:18:02.550Z,100.00
2023-01-07T07:20:29.510Z,100.00
2023-01-07T07:22:56.552Z,100.00
2023-01-07T07:25:23.543Z,100.00
2023-01-07T07:27:50.692Z,100.00
2023-01-07T07:30:17.877Z,100.00
2023-01-07T07:32:45.048Z,100.00
2023-01-07T07:35:12.602Z,100.00
2023-01-07T07:37:39.981Z,100.00
2023-01-07T07:40:09.187Z,100.00
2023-01-07T07:43:09.316Z,100.00
2023-01-07T07:45:24.588Z,100.00
2023-01-07T07:47:51.650Z,100.00
2023-01-07T07:50:18.726Z,100.00
2023-01-07T07:52:46.377Z,100.00
2023-01-07T07:55:20.794Z,100.00
2023-01-07T07:57:55.529Z,100.00
2023-01-07T08:00:23.085Z,100.00
2023-01-07T08:02:50.289Z,100.00
2023-01-07T08:05:17.433Z,100.00
2023-01-07T08:07:44.528Z,100.00
2023-01-07T08:10:11.585Z,100.00
2023-01-07T08:12:39.336Z,100.00
2023-01-07T08:15:08.186Z,100.00
2023-01-07T08:17:36.535Z,100.00
2023-01-07T08:20:07.712Z,100.00
2023-01-07T08:22:35.003Z,100.00
2023-01-07T08:25:02.420Z,100.00
2023-01-07T08:27:29.730Z,100.00
2023-01-07T08:29:56.956Z,100.00
2023-01-07T08:32:24.157Z,100.00
2023-01-07T08:34:51.187Z,100.00
2023-01-07T08:37:18.190Z,100.00
2023-01-07T08:39:45.197Z,100.00
2023-01-07T08:42:12.248Z,100.00
2023-01-07T08:44:39.505Z,100.00
2023-01-07T08:47:06.499Z,100.00
2023-01-07T08:49:33.586Z,100.00
2023-01-07T08:52:00.657Z,100.00
2023-01-07T08:54:27.937Z,100.00
2023-01-07T08:56:54.900Z,100.00
2023-01-07T08:59:21.830Z,100.00
2023-01-07T09:01:48.995Z,100.00
2023-01-07T09:04:16.086Z,100.00
2023-01-07T09:06:43.139Z,100.00
2023-01-07T09:09:11.999Z,100.00
2023-01-07T09:11:39.118Z,100.00
2023-01-07T09:14:06.206Z,100.00
2023-01-07T09:16:33.300Z,100.00
2023-01-07T09:19:00.392Z,100.00
2023-01-07T09:21:27.370Z,100.00
2023-01-07T09:23:54.321Z,100.00
2023-01-07T09:26:21.284Z,100.00
2023-01-07T09:28:48.210Z,100.00
2023-01-07T09:34:01.796Z,100.00
2023-01-07T09:36:29.156Z,100.00
2023-01-07T09:38:56.236Z,100.00
2023-01-07T09:41:44.644Z,100.00
2023-01-07T09:44:48.771Z,100.00
2023-01-07T09:47:19.625Z,100.00
2023-01-07T09:49:51.246Z,100.00
2023-01-07T09:52:22.846Z,100.00
2023-01-07T09:54:58.744Z,100.00
2023-01-07T09:57:27.769Z,100.00
2023-01-07T09:59:55.392Z,100.00
2023-01-07T10:02:40.624Z,100.00
2023-01-07T10:05:29.155Z,100.00
2023-01-07T10:08:33.036Z,100.00
2023-01-07T10:11:28.925Z,100.00
2023-01-07T10:14:30.808Z,100.00
2023-01-07T10:17:25.952Z,100.00
2023-01-07T10:20:33.847Z,100.00
2023-01-07T10:23:32.087Z,100.00
2023-01-07T10:26:03.259Z,100.00
2023-01-07T10:28:47.776Z,100.00
2023-01-07T10:31:33.352Z,100.00
2023-01-07T10:34:57.029Z,100.00
2023-01-07T10:37:46.474Z,100.00
2023-01-07T10:40:39.094Z,100.00
2023-01-07T10:43:37.673Z,100.00
2023-01-07T10:46:42.165Z,100.00
2023-01-07T10:49:35.354Z,100.00
2023-01-07T10:52:23.576Z,100.00
2023-01-07T10:55:20.421Z,100.00
2023-01-07T10:57:49.058Z,100.00
2023-01-07T11:00:17.959Z,100.00
2023-01-07T11:03:00.734Z,100.00
2023-01-07T11:05:38.118Z,100.00
2023-01-07T11:08:32.401Z,99.80
2023-01-07T11:11:04.338Z,100.00
2023-01-07T11:13:34.214Z,100.00
2023-01-07T11:16:26.540Z,99.68
2023-01-07T11:19:01.509Z,99.58
2023-01-07T11:21:44.079Z,99.59
2023-01-07T11:24:35.723Z,98.73
2023-01-07T11:27:19.356Z,98.55
2023-01-07T11:30:00.873Z,98.67
2023-01-07T11:32:32.103Z,98.94
2023-01-07T11:35:06.388Z,98.77
2023-01-07T11:37:49.640Z,98.75
2023-01-07T11:40:20.743Z,99.16
2023-01-07T11:43:05.539Z,98.86
2023-01-07T11:46:19.938Z,98.63
2023-01-07T11:49:01.707Z,98.23
2023-01-07T11:51:42.086Z,97.85
2023-01-07T11:54:27.452Z,97.91
2023-01-07T11:57:22.098Z,97.73
2023-01-07T12:00:05.940Z,97.75
2023-01-07T12:02:33.188Z,96.90
2023-01-07T12:05:29.632Z,96.00
2023-01-07T12:07:59.193Z,96.31
2023-01-07T12:10:32.597Z,95.83
2023-01-07T12:13:16.238Z,96.20
2023-01-07T12:16:06.109Z,96.36
2023-01-07T12:18:55.620Z,95.97
2023-01-07T12:21:33.272Z,95.47
2023-01-07T12:24:44.314Z,96.26
2023-01-07T12:27:35.761Z,96.07
2023-01-07T12:30:38.092Z,96.19
2023-01-07T12:34:00.678Z,94.97
2023-01-07T12:37:08.151Z,94.89
2023-01-07T12:39:41.533Z,94.13
2023-01-07T12:44:56.026Z,93.02
2023-01-07T12:48:00.283Z,92.46
2023-01-07T12:50:46.325Z,91.71
2023-01-07T12:53:25.547Z,91.54
2023-01-07T12:56:00.177Z,91.64
2023-01-07T12:58:52.664Z,91.33
2023-01-07T13:01:43.130Z,91.50
2023-01-07T13:04:42.737Z,90.49
2023-01-07T13:07:35.585Z,89.54
2023-01-07T13:10:23.912Z,88.10
2023-01-07T13:12:59.711Z,86.85
2023-01-07T13:15:34.246Z,86.32
2023-01-07T13:18:21.445Z,86.92
2023-01-07T13:21:08.482Z,85.94
2023-01-07T13:24:19.393Z,85.22
2023-01-07T13:27:09.786Z,85.75
2023-01-07T13:30:00.750Z,85.53
2023-01-07T13:32:58.054Z,85.04
2023-01-07T13:35:44.100Z,86.27
2023-01-07T13:38:35.600Z,85.96
2023-01-07T13:41:14.741Z,86.00
2023-01-07T13:43:58.197Z,85.83
2023-01-07T13:46:35.712Z,85.61
2023-01-07T13:49:03.329Z,85.21
2023-01-07T13:51:37.341Z,84.81
2023-01-07T13:54:05.036Z,84.37
2023-01-07T13:56:36.193Z,83.65
2023-01-07T13:59:04.185Z,83.03
2023-01-07T14:01:33.737Z,83.29
2023-01-07T14:04:03.969Z,83.93
2023-01-07T14:06:38.750Z,84.23
2023-01-07T14:09:11.161Z,83.72
2023-01-07T14:11:42.371Z,83.80
2023-01-07T14:14:35.399Z,82.90
2023-01-07T14:18:00.411Z,82.75
2023-01-07T14:20:39.779Z,82.91
2023-01-07T14:23:25.385Z,83.52
2023-01-07T14:26:13.804Z,83.15
2023-01-07T14:29:04.983Z,83.26
2023-01-07T14:31:32.275Z,83.39
2023-01-07T14:34:09.040Z,84.00
2023-01-07T14:37:09.115Z,84.29
2023-01-07T14:39:38.984Z,84.16
2023-01-07T14:42:20.969Z,83.71
2023-01-07T14:44:51.825Z,84.27
2023-01-07T14:47:43.143Z,84.90
2023-01-07T14:50:37.948Z,84.69
2023-01-07T14:53:22.177Z,84.58
2023-01-07T14:56:26.871Z,85.18
2023-01-07T14:59:20.724Z,86.24
2023-01-07T15:02:41.470Z,86.62
2023-01-07T15:05:51.557Z,86.33
2023-01-07T15:08:41.431Z,87.16
2023-01-07T15:11:34.517Z,88.13
2023-01-07T15:14:28.619Z,88.57
2023-01-07T15:16:56.452Z,88.69
2023-01-07T15:19:23.638Z,89.46
2023-01-07T15:22:08.405Z,90.10
2023-01-07T15:24:55.848Z,90.27
2023-01-07T15:27:39.468Z,91.03
2023-01-07T15:30:43.264Z,91.19
2023-01-07T15:33:53.099Z,91.16
2023-01-07T15:36:20.390Z,91.51
2023-01-07T15:38:52.958Z,92.84
2023-01-07T15:41:38.388Z,93.01
2023-01-07T15:44:16.645Z,91.34
2023-01-07T15:46:44.249Z,91.79
2023-01-07T15:49:20.742Z,93.54
2023-01-07T15:51:57.351Z,92.68
2023-01-07T15:54:39.746Z,91.92
2023-01-07T15:57:28.233Z,92.62
2023-01-07T15:59:56.613Z,92.72
2023-01-07T16:02:27.674Z,93.26
2023-01-07T16:04:59.645Z,94.16
2023-01-07T16:07:48.235Z,94.25
2023-01-07T16:10:27.301Z,95.04
2023-01-07T16:13:06.904Z,95.50
2023-01-07T16:15:38.496Z,95.85
2023-01-07T16:18:19.217Z,96.20
2023-01-07T16:20:57.907Z,96.46
2023-01-07T16:23:46.390Z,96.46
2023-01-07T16:26:27.286Z,96.33
2023-01-07T16:29:02.708Z,96.34
2023-01-07T16:31:30.948Z,96.77
2023-01-07T16:34:00.150Z,96.99
2023-01-07T16:36:37.676Z,97.10
2023-01-07T16:39:17.677Z,97.44
2023-01-07T16:41:44.950Z,97.70
2023-01-07T16:44:56.800Z,97.57
2023-01-07T16:47:33.069Z,97.74
2023-01-07T16:50:15.221Z,98.02
2023-01-07T16:52:57.632Z,98.74
2023-01-07T16:56:03.508Z,99.04
2023-01-07T16:58:38.374Z,99.41
2023-01-07T17:01:06.801Z,99.43
2023-01-07T17:03:47.958Z,99.63
2023-01-07T17:06:23.132Z,100.00
2023-01-07T17:08:53.466Z,100.00
2023-01-07T17:11:28.099Z,100.00
2023-01-07T17:13:55.190Z,100.00
2023-01-07T17:16:42.615Z,100.00
2023-01-07T17:19:27.995Z,100.00
2023-01-07T17:22:05.851Z,100.00
2023-01-07T17:24:47.523Z,100.00
2023-01-07T17:27:28.890Z,100.00
2023-01-07T17:29:56.688Z,100.00
2023-01-07T17:32:24.449Z,100.00
2023-01-07T17:34:52.089Z,100.00
2023-01-07T17:37:19.287Z,100.00
2023-01-07T17:39:46.553Z,100.00
2023-01-07T17:42:52.342Z,100.00
2023-01-07T17:45:20.951Z,100.00
2023-01-07T17:47:49.727Z,100.00
2023-01-07T17:50:19.712Z,100.00
2023-01-07T17:52:50.203Z,100.00
2023-01-07T17:55:26.359Z,100.00
2023-01-07T17:57:53.675Z,100.00
2023-01-07T18:00:25.814Z,100.00
2023-01-07T18:02:52.969Z,100.00
2023-01-07T18:05:23.351Z,100.00
2023-01-07T18:07:52.679Z,100.00
2023-01-07T18:10:29.137Z,100.00
2023-01-07T18:12:56.120Z,100.00
2023-01-07T18:15:26.269Z,100.00
2023-01-07T18:17:54.112Z,100.00
2023-01-07T18:20:22.530Z,100.00
2023-01-07T18:22:50.617Z,100.00
2023-01-07T18:25:21.757Z,100.00
2023-01-07T18:27:53.108Z,100.00
2023-01-07T18:30:22.259Z,100.00
2023-01-07T18:32:53.196Z,100.00
2023-01-07T18:35:22.891Z,100.00
2023-01-07T18:37:50.894Z,100.00
2023-01-07T18:40:19.043Z,100.00
2023-01-07T18:42:46.233Z,100.00
2023-01-07T18:45:14.079Z,100.00
2023-01-07T18:47:43.101Z,100.00
2023-01-07T18:50:10.287Z,100.00
2023-01-07T18:52:42.180Z,100.00
2023-01-07T18:55:10.927Z,100.00
2023-01-07T18:57:38.194Z,100.00
2023-01-07T19:00:06.983Z,100.00
2023-01-07T19:02:34.705Z,100.00
2023-01-07T19:05:02.178Z,100.00
2023-01-07T19:07:30.862Z,100.00
2023-01-07T19:09:58.022Z,100.00
2023-01-07T19:12:25.071Z,100.00
2023-01-07T19:14:52.104Z,100.00
2023-01-07T19:17:19.285Z,100.00
2023-01-07T19:19:48.624Z,100.00
2023-01-07T19:22:16.647Z,100.00
2023-01-07T19:24:44.595Z,100.00
2023-01-07T19:27:12.791Z,100.00
2023-01-07T19:29:39.838Z,100.00
2023-01-07T19:32:07.141Z,100.00
2023-01-07T19:34:34.251Z,100.00
2023-01-07T19:37:01.411Z,100.00
2023-01-07T19:39:28.874Z,100.00
2023-01-07T19:41:56.916Z,100.00
2023-01-07T19:44:24.066Z,100.00
2023-01-07T19:46:51.421Z,100.00
2023-01-07T19:49:18.853Z,100.00
2023-01-07T19:51:46.103Z,100.00
2023-01-07T19:54:16.185Z,100.00
2023-01-07T19:56:45.245Z,100.00
2023-01-07T19:59:15.057Z,100.00
2023-01-07T20:01:42.569Z,100.00
2023-01-07T20:04:12.368Z,100.00
2023-01-07T20:06:39.767Z,100.00
2023-01-07T20:09:11.550Z,100.00
2023-01-07T20:11:39.645Z,100.00
2023-01-07T20:14:07.870Z,100.00
2023-01-07T20:16:37.055Z,100.00
2023-01-07T20:19:05.353Z,100.00
2023-01-07T20:21:33.692Z,100.00
2023-01-07T20:24:00.737Z,100.00
2023-01-07T20:26:31.250Z,100.00
2023-01-07T20:28:59.788Z,100.00
2023-01-07T20:31:29.212Z,100.00
2023-01-07T20:33:57.579Z,100.00
2023-01-07T20:36:28.841Z,100.00
2023-01-07T20:38:56.768Z,100.00
2023-01-07T20:41:26.417Z,100.00
2023-01-07T20:43:58.650Z,100.00
2023-01-07T20:46:28.616Z,100.00
2023-01-07T20:48:57.160Z,100.00
2023-01-07T20:51:24.555Z,100.00
2023-01-07T20:53:52.547Z,100.00
2023-01-07T20:56:24.090Z,100.00
2023-01-07T20:58:51.226Z,100.00
2023-01-07T21:01:22.051Z,100.00
2023-01-07T21:03:49.667Z,100.00
2023-01-07T21:06:20.146Z,100.00
2023-01-07T21:08:48.661Z,100.00
2023-01-07T21:11:19.661Z,100.00
2023-01-07T21:13:47.627Z,100.00
2023-01-07T21:16:15.765Z,100.00
2023-01-07T21:18:43.074Z,100.00
2023-01-07T21:21:14.226Z,100.00
2023-01-07T21:23:41.878Z,100.00
2023-01-07T21:26:10.118Z,100.00
2023-01-07T21:28:37.252Z,100.00
2023-01-07T21:31:08.897Z,100.00
2023-01-07T21:33:37.692Z,100.00
2023-01-07T21:36:19.164Z,100.00
2023-01-07T21:38:47.536Z,100.00
2023-01-07T21:41:16.674Z,100.00
2023-01-07T21:43:44.484Z,100.00
2023-01-07T21:46:12.008Z,100.00
2023-01-07T21:48:46.517Z,100.00
2023-01-07T21:51:23.341Z,100.00
2023-01-07T21:53:55.905Z,100.00
2023-01-07T21:56:25.539Z,100.00
2023-01-07T21:58:53.130Z,100.00
2023-01-07T22:01:20.477Z,100.00
2023-01-07T22:03:49.441Z,100.00
2023-01-07T22:06:23.723Z,100.00
2023-01-07T22:08:55.649Z,100.00
2023-01-07T22:11:23.166Z,100.00
2023-01-07T22:13:56.428Z,100.00
2023-01-07T22:16:25.379Z,100.00
2023-01-07T22:18:52.758Z,100.00
2023-01-07T22:21:21.378Z,100.00
2023-01-07T22:23:48.971Z,100.00
2023-01-07T22:26:18.631Z,100.00
2023-01-07T22:28:52.917Z,100.00
2023-01-07T22:31:24.161Z,100.00
2023-01-07T22:33:52.173Z,100.00
2023-01-07T22:36:34.294Z,100.00
2023-01-07T22:39:10.322Z,100.00
2023-01-07T22:41:37.895Z,99.50
2023-01-07T22:44:13.359Z,99.23
2023-01-07T22:46:45.757Z,98.45
2023-01-07T22:49:13.625Z,98.68
2023-01-07T22:51:46.967Z,98.44
2023-01-07T22:54:14.952Z,97.99
2023-01-07T22:56:43.488Z,96.99
2023-01-07T22:59:10.565Z,96.69
2023-01-07T23:01:39.903Z,96.93
2023-01-07T23:04:07.121Z,96.46
2023-01-07T23:06:34.188Z,96.72
2023-01-07T23:09:01.492Z,97.34
2023-01-07T23:11:46.850Z,97.46
2023-01-07T23:14:15.622Z,98.05
2023-01-07T23:16:42.716Z,99.12
2023-01-07T23:19:09.896Z,99.37
2023-01-07T23:21:40.871Z,100.00
2023-01-07T23:24:08.209Z,100.00
2023-01-07T23:26:35.680Z,100.00
2023-01-07T23:29:02.881Z,100.00
2023-01-07T23:31:30.518Z,100.00
2023-01-07T23:33:57.546Z,100.00
2023-01-07T23:36:24.630Z,100.00
2023-01-07T23:38:52.357Z,100.00
2023-01-07T23:41:19.718Z,100.00
2023-01-07T23:43:46.797Z,100.00
2023-01-07T23:46:13.926Z,100.00
2023-01-07T23:48:41.058Z,100.00
2023-01-07T23:51:11.786Z,100.00
2023-01-07T23:53:39.552Z,100.00
2023-01-07T23:56:08.323Z,100.00
2023-01-07T23:58:36.627Z,100.00
